Time;durP1;ratioP1;P1;durP2;ratioP2;P2;SDS_P1;SDS_P2;PMS_P1;PMS_P2;Temp;Humidity;BMP_temperature;BMP_pressure;BME280_temperature;BME280_humidity;BME280_pressure;Samples;Min_cycle;Max_cycle;Signal;HPM_P1;HPM_P2
2021/01/05 00:00:57;;;;;;;14.82;11.18;;;;;;;;;;6184736;23;20441;-71
2021/01/05 00:03:24;;;;;;;14.45;9.80;;;;;;;;;;6210498;23;20025;-71
2021/01/05 00:05:53;;;;;;;14.18;9.73;;;;;;;;;;6211534;23;20024;-73
2021/01/05 00:08:19;;;;;;;14.95;12.23;;;;;;;;;;6211641;23;20064;-71
2021/01/05 00:10:45;;;;;;;54.42;14.80;;;;;;;;;;6186471;23;20025;-72
2021/01/05 00:13:11;;;;;;;15.50;10.68;;;;;;;;;;6213042;23;20020;-74
2021/01/05 00:15:37;;;;;;;15.55;11.00;;;;;;;;;;6212206;23;20025;-71
2021/01/05 00:18:03;;;;;;;15.98;11.00;;;;;;;;;;6207424;22;20103;-72
2021/01/05 00:20:32;;;;;;;18.13;10.85;;;;;;;;;;6212555;23;20103;-72
2021/01/05 00:23:11;;;;;;;17.80;11.25;;;;;;;;;;6189502;23;20016;-72
2021/01/05 00:25:37;;;;;;;16.73;10.20;;;;;;;;;;6213551;23;20096;-72
2021/01/05 00:28:03;;;;;;;15.43;10.63;;;;;;;;;;6210666;23;20063;-71
2021/01/05 00:30:29;;;;;;;13.98;10.57;;;;;;;;;;6212202;23;20068;-72
2021/01/05 00:32:55;;;;;;;14.32;10.57;;;;;;;;;;6211682;23;20344;-71
2021/01/05 00:35:27;;;;;;;12.85;10.65;;;;;;;;;;6213450;23;20028;-72
2021/01/05 00:37:53;;;;;;;13.63;10.25;;;;;;;;;;6211633;23;20028;-73
2021/01/05 00:40:21;;;;;;;13.20;9.23;;;;;;;;;;6212730;23;20027;-73
2021/01/05 00:42:47;;;;;;;15.13;9.48;;;;;;;;;;6211109;23;20017;-72
2021/01/05 00:45:33;;;;;;;13.93;9.13;;;;;;;;;;6212704;23;20062;-73
2021/01/05 00:48:00;;;;;;;12.05;9.10;;;;;;;;;;6182242;23;20512;-71
2021/01/05 00:50:26;;;;;;;13.40;9.70;;;;;;;;;;6182012;23;20032;-72
2021/01/05 00:52:52;;;;;;;13.75;11.13;;;;;;;;;;6183010;23;20092;-72
2021/01/05 00:55:18;;;;;;;15.02;9.65;;;;;;;;;;6181281;23;20108;-72
2021/01/05 00:57:45;;;;;;;15.80;9.90;;;;;;;;;;6181925;23;20831;-71
2021/01/05 01:00:13;;;;;;;12.90;9.50;;;;;;;;;;6156108;23;20025;-72
2021/01/05 01:02:40;;;;;;;11.23;8.93;;;;;;;;;;6183220;23;20095;-74
2021/01/05 01:05:06;;;;;;;13.35;9.57;;;;;;;;;;6183056;23;20021;-74
2021/01/05 01:07:32;;;;;;;15.18;10.38;;;;;;;;;;6182403;23;20397;-74
2021/01/05 01:09:58;;;;;;;13.82;9.80;;;;;;;;;;6182274;23;20117;-74
2021/01/05 01:12:25;;;;;;;12.73;9.98;;;;;;;;;;6182387;23;20100;-73
2021/01/05 01:14:52;;;;;;;14.68;10.48;;;;;;;;;;6178571;23;20025;-72
2021/01/05 01:17:19;;;;;;;14.45;10.00;;;;;;;;;;6156066;23;20100;-75
2021/01/05 01:19:45;;;;;;;14.32;10.25;;;;;;;;;;6182032;23;20053;-74
2021/01/05 01:22:11;;;;;;;13.68;10.23;;;;;;;;;;6183216;23;20017;-74
2021/01/05 01:24:37;;;;;;;12.02;8.70;;;;;;;;;;6181565;23;20140;-74
2021/01/05 01:27:17;;;;;;;10.35;8.50;;;;;;;;;;6181319;23;20048;-74
2021/01/05 01:29:43;;;;;;;13.82;9.30;;;;;;;;;;6182606;23;20025;-73
2021/01/05 01:32:09;;;;;;;13.68;10.73;;;;;;;;;;6181785;23;20092;-74
2021/01/05 01:34:35;;;;;;;14.50;10.18;;;;;;;;;;6182326;23;20400;-73
2021/01/05 01:37:04;;;;;;;15.25;10.13;;;;;;;;;;6183198;23;20513;-73
2021/01/05 01:39:30;;;;;;;15.25;10.27;;;;;;;;;;6182578;23;20025;-74
2021/01/05 01:41:57;;;;;;;12.57;9.35;;;;;;;;;;6181240;23;20499;-73
2021/01/05 01:44:25;;;;;;;14.85;10.05;;;;;;;;;;6179083;23;20024;-74
2021/01/05 01:46:53;;;;;;;13.55;9.68;;;;;;;;;;6182465;23;20021;-74
2021/01/05 01:49:20;;;;;;;13.90;9.45;;;;;;;;;;6156640;23;20052;-73
2021/01/05 01:51:46;;;;;;;15.13;10.18;;;;;;;;;;6183248;23;20017;-73
2021/01/05 01:54:12;;;;;;;14.00;9.02;;;;;;;;;;6181896;23;20028;-73
2021/01/05 01:56:38;;;;;;;13.05;9.40;;;;;;;;;;6182783;23;20017;-73
2021/01/05 01:59:07;;;;;;;11.63;8.75;;;;;;;;;;6180982;23;20028;-74
2021/01/05 02:01:39;;;;;;;13.95;9.75;;;;;;;;;;6182289;23;20531;-73
2021/01/05 02:04:08;;;;;;;13.88;9.75;;;;;;;;;;6182109;23;20103;-73
2021/01/05 02:06:34;;;;;;;13.47;9.70;;;;;;;;;;6183021;23;20045;-72
2021/01/05 02:09:03;;;;;;;12.70;8.73;;;;;;;;;;6179483;23;20242;-73
2021/01/05 02:11:42;;;;;;;16.10;10.00;;;;;;;;;;6183250;23;20023;-72
2021/01/05 02:14:11;;;;;;;12.55;8.70;;;;;;;;;;6184323;23;20814;-72
2021/01/05 02:16:50;;;;;;;11.15;8.38;;;;;;;;;;6184294;23;20021;-72
2021/01/05 02:19:35;;;;;;;13.27;8.77;;;;;;;;;;6183835;23;20048;-71
2021/01/05 02:22:20;;;;;;;11.45;8.95;;;;;;;;;;6182752;23;20524;-71
2021/01/05 02:25:03;;;;;;;11.63;8.50;;;;;;;;;;6185181;23;20416;-72
2021/01/05 02:27:30;;;;;;;10.95;7.30;;;;;;;;;;6184374;23;20032;-72
2021/01/05 02:30:04;;;;;;;13.00;9.35;;;;;;;;;;6157209;23;20017;-70
2021/01/05 02:32:40;;;;;;;12.55;8.43;;;;;;;;;;6183958;23;20353;-71
2021/01/05 02:35:24;;;;;;;12.15;8.38;;;;;;;;;;6183877;23;20029;-71
2021/01/05 02:38:09;;;;;;;11.55;8.55;;;;;;;;;;6184115;23;20107;-72
2021/01/05 02:40:41;;;;;;;11.75;8.50;;;;;;;;;;6181330;23;20381;-72
2021/01/05 02:43:19;;;;;;;10.02;8.00;;;;;;;;;;6181997;23;20040;-71
2021/01/05 02:45:55;;;;;;;11.32;8.43;;;;;;;;;;6182396;23;20378;-71
2021/01/05 02:48:21;;;;;;;12.18;8.57;;;;;;;;;;6183646;23;20021;-72
2021/01/05 02:50:53;;;;;;;12.70;8.32;;;;;;;;;;6183386;23;20461;-72
2021/01/05 02:53:37;;;;;;;14.82;8.20;;;;;;;;;;6183239;23;20096;-71
2021/01/05 02:56:22;;;;;;;12.52;7.45;;;;;;;;;;6183339;23;20032;-72
2021/01/05 02:59:07;;;;;;;10.40;7.97;;;;;;;;;;6183369;23;20032;-72
2021/01/05 03:01:52;;;;;;;9.77;8.20;;;;;;;;;;6181937;23;20136;-70
2021/01/05 03:04:21;;;;;;;13.00;8.65;;;;;;;;;;6182457;23;20381;-71
2021/01/05 03:06:58;;;;;;;9.77;7.78;;;;;;;;;;6183570;23;20023;-73
2021/01/05 03:09:35;;;;;;;10.50;8.20;;;;;;;;;;6183968;23;20021;-72
2021/01/05 03:12:01;;;;;;;12.57;9.30;;;;;;;;;;6181260;23;20021;-73
2021/01/05 03:14:36;;;;;;;11.23;8.30;;;;;;;;;;6182075;23;20029;-73
2021/01/05 03:17:11;;;;;;;13.50;9.07;;;;;;;;;;6182918;23;20017;-72
2021/01/05 03:19:38;;;;;;;11.45;8.23;;;;;;;;;;6183187;23;20039;-70
2021/01/05 03:22:06;;;;;;;11.57;9.15;;;;;;;;;;6183075;23;20051;-72
2021/01/05 03:24:33;;;;;;;12.93;9.20;;;;;;;;;;6184042;23;20061;-72
2021/01/05 03:27:00;;;;;;;12.02;8.18;;;;;;;;;;6183165;23;20349;-71
2021/01/05 03:29:27;;;;;;;10.75;7.93;;;;;;;;;;6183531;23;20017;-72
2021/01/05 03:32:00;;;;;;;11.68;8.65;;;;;;;;;;6156082;23;20112;-73
2021/01/05 03:34:27;;;;;;;12.25;8.32;;;;;;;;;;6183598;23;20389;-72
2021/01/05 03:36:53;;;;;;;9.00;7.35;;;;;;;;;;6182923;23;20349;-75
2021/01/05 03:39:19;;;;;;;10.88;8.52;;;;;;;;;;6182585;23;20057;-74
2021/01/05 03:41:45;;;;;;;13.65;8.18;;;;;;;;;;6182927;23;20024;-75
2021/01/05 03:44:11;;;;;;;9.02;7.50;;;;;;;;;;6183661;23;20057;-75
2021/01/05 03:46:37;;;;;;;9.77;8.35;;;;;;;;;;6182291;23;20017;-75
2021/01/05 03:49:03;;;;;;;9.73;7.28;;;;;;;;;;6182792;23;20029;-75
2021/01/05 03:51:30;;;;;;;9.15;7.82;;;;;;;;;;6182678;23;20023;-75
2021/01/05 03:53:56;;;;;;;10.43;7.45;;;;;;;;;;6182656;23;20063;-75
2021/01/05 03:56:23;;;;;;;10.18;8.23;;;;;;;;;;6183719;23;20031;-75
2021/01/05 03:58:49;;;;;;;11.85;7.75;;;;;;;;;;6183923;23;20097;-75
2021/01/05 04:01:15;;;;;;;12.20;8.25;;;;;;;;;;6181491;23;20023;-75
2021/01/05 04:03:41;;;;;;;10.00;8.02;;;;;;;;;;6183315;23;20104;-75
2021/01/05 04:06:08;;;;;;;10.13;6.60;;;;;;;;;;6183094;23;20095;-75
2021/01/05 04:08:34;;;;;;;9.85;7.72;;;;;;;;;;6183548;23;20047;-76
2021/01/05 04:11:00;;;;;;;10.32;7.38;;;;;;;;;;6183950;23;20063;-75
2021/01/05 04:13:26;;;;;;;10.63;7.50;;;;;;;;;;6182762;23;20020;-75
2021/01/05 04:15:52;;;;;;;10.13;7.97;;;;;;;;;;6183037;23;20024;-75
2021/01/05 04:18:21;;;;;;;10.68;6.93;;;;;;;;;;6181604;23;20469;-76
2021/01/05 04:20:47;;;;;;;9.88;7.38;;;;;;;;;;6183095;23;20103;-75
2021/01/05 04:23:13;;;;;;;10.15;7.82;;;;;;;;;;6183684;23;20107;-75
2021/01/05 04:25:39;;;;;;;9.20;6.97;;;;;;;;;;6182571;23;20035;-71
2021/01/05 04:28:06;;;;;;;11.18;7.05;;;;;;;;;;6182883;23;20096;-72
2021/01/05 04:30:32;;;;;;;9.75;6.93;;;;;;;;;;6182338;23;20036;-71
2021/01/05 04:33:01;;;;;;;9.30;7.00;;;;;;;;;;6182529;23;20099;-72
2021/01/05 04:35:27;;;;;;;10.05;7.55;;;;;;;;;;6181844;23;20113;-74
2021/01/05 04:37:54;;;;;;;9.63;7.80;;;;;;;;;;6155383;23;20060;-73
2021/01/05 04:40:23;;;;;;;11.45;7.32;;;;;;;;;;6157045;23;20039;-74
2021/01/05 04:42:55;;;;;;;8.80;6.95;;;;;;;;;;6183040;23;20059;-75
2021/01/05 04:45:23;;;;;;;10.48;7.93;;;;;;;;;;6182269;23;20136;-74
2021/01/05 04:48:07;;;;;;;8.93;6.63;;;;;;;;;;6181804;23;20353;-73
2021/01/05 04:50:46;;;;;;;8.77;7.05;;;;;;;;;;6182636;23;20025;-74
2021/01/05 04:53:12;;;;;;;8.75;6.78;;;;;;;;;;6183464;23;20352;-73
2021/01/05 04:55:57;;;;;;;10.23;7.22;;;;;;;;;;6182633;23;20060;-74
2021/01/05 04:58:33;;;;;;;9.00;6.85;;;;;;;;;;6182222;23;20063;-74
2021/01/05 05:01:00;;;;;;;10.73;7.13;;;;;;;;;;6182058;23;20020;-75
2021/01/05 05:03:33;;;;;;;10.32;7.40;;;;;;;;;;6183077;23;20100;-74
2021/01/05 05:06:22;;;;;;;8.40;6.80;;;;;;;;;;6182739;23;20067;-75
2021/01/05 05:08:58;;;;;;;10.93;7.10;;;;;;;;;;6167472;23;20017;-74
2021/01/05 05:11:26;;;;;;;9.52;6.85;;;;;;;;;;6181997;23;20025;-75
2021/01/05 05:14:00;;;;;;;10.35;6.78;;;;;;;;;;6183013;23;20020;-74
2021/01/05 05:16:26;;;;;;;9.15;6.78;;;;;;;;;;6182032;23;20056;-75
2021/01/05 05:19:01;;;;;;;9.73;6.72;;;;;;;;;;6182101;23;20112;-75
2021/01/05 05:21:30;;;;;;;9.85;7.22;;;;;;;;;;6182241;23;20056;-75
2021/01/05 05:24:15;;;;;;;8.40;7.00;;;;;;;;;;6182935;23;20100;-73
2021/01/05 05:27:01;;;;;;;10.85;7.40;;;;;;;;;;6182647;23;20108;-73
2021/01/05 05:29:32;;;;;;;9.32;6.93;;;;;;;;;;6182318;23;20021;-75
2021/01/05 05:32:00;;;;;;;10.55;7.13;;;;;;;;;;6182298;23;20457;-74
2021/01/05 05:34:33;;;;;;;8.88;7.00;;;;;;;;;;6182781;23;20025;-74
2021/01/05 05:37:02;;;;;;;9.35;7.00;;;;;;;;;;6182655;23;20353;-74
2021/01/05 05:39:34;;;;;;;10.38;7.63;;;;;;;;;;6182579;23;20021;-73
2021/01/05 05:42:19;;;;;;;9.55;6.55;;;;;;;;;;6182496;23;20104;-73
2021/01/05 05:45:06;;;;;;;10.63;7.50;;;;;;;;;;6181904;23;20032;-74
2021/01/05 05:47:35;;;;;;;10.43;6.70;;;;;;;;;;6182474;23;20041;-74
2021/01/05 05:50:19;;;;;;;9.63;6.72;;;;;;;;;;6184745;23;20057;-73
2021/01/05 05:52:56;;;;;;;10.23;6.90;;;;;;;;;;6184031;23;20141;-72
2021/01/05 05:55:41;;;;;;;9.93;6.78;;;;;;;;;;6184639;23;20067;-73
2021/01/05 05:58:09;;;;;;;8.60;6.30;;;;;;;;;;6183826;23;20104;-73
2021/01/05 06:00:45;;;;;;;8.82;6.80;;;;;;;;;;6182743;23;20540;-72
2021/01/05 06:03:14;;;;;;;8.18;6.30;;;;;;;;;;6183537;23;20374;-73
2021/01/05 06:05:40;;;;;;;8.45;6.38;;;;;;;;;;6183608;23;20057;-73
2021/01/05 06:08:08;;;;;;;7.97;6.60;;;;;;;;;;6184313;23;20104;-72
2021/01/05 06:10:34;;;;;;;7.60;5.50;;;;;;;;;;6184451;23;20033;-72
2021/01/05 06:13:00;;;;;;;8.27;6.72;;;;;;;;;;6184458;23;20497;-73
2021/01/05 06:15:27;;;;;;;10.38;7.50;;;;;;;;;;6156448;23;20027;-74
2021/01/05 06:17:53;;;;;;;7.85;6.78;;;;;;;;;;6183925;23;20029;-73
2021/01/05 06:20:19;;;;;;;8.60;6.97;;;;;;;;;;6156819;23;20025;-74
2021/01/05 06:22:45;;;;;;;9.30;6.20;;;;;;;;;;6184737;23;20059;-74
2021/01/05 06:25:12;;;;;;;8.25;6.63;;;;;;;;;;6182873;23;20068;-73
2021/01/05 06:27:38;;;;;;;8.68;6.28;;;;;;;;;;6183276;23;20505;-73
2021/01/05 06:30:05;;;;;;;7.30;6.00;;;;;;;;;;6182875;23;20056;-73
2021/01/05 06:32:31;;;;;;;7.82;5.68;;;;;;;;;;6157845;23;20100;-74
2021/01/05 06:34:57;;;;;;;9.35;6.57;;;;;;;;;;6158152;23;20397;-73
2021/01/05 06:37:24;;;;;;;7.65;6.13;;;;;;;;;;6182775;23;20021;-72
2021/01/05 06:39:50;;;;;;;7.40;5.95;;;;;;;;;;6157482;23;20092;-81
2021/01/05 06:42:16;;;;;;;7.03;5.57;;;;;;;;;;6184161;23;20104;-71
2021/01/05 06:44:44;;;;;;;8.02;6.38;;;;;;;;;;6158626;23;20457;-74
2021/01/05 06:47:13;;;;;;;12.02;6.72;;;;;;;;;;6184666;23;20115;-74
2021/01/05 06:49:40;;;;;;;7.25;5.50;;;;;;;;;;6157324;23;20087;-72
2021/01/05 06:52:06;;;;;;;8.50;6.32;;;;;;;;;;6158481;23;20049;-72
2021/01/05 06:54:32;;;;;;;9.02;6.13;;;;;;;;;;6183878;23;20412;-74
2021/01/05 06:56:59;;;;;;;9.68;6.57;;;;;;;;;;6157375;23;20079;-73
2021/01/05 06:59:26;;;;;;;8.38;6.40;;;;;;;;;;6183517;23;20457;-72
2021/01/05 07:01:53;;;;;;;9.60;6.20;;;;;;;;;;6156965;23;20044;-73
2021/01/05 07:04:20;;;;;;;10.85;6.55;;;;;;;;;;6183493;23;20017;-73
2021/01/05 07:06:52;;;;;;;9.48;6.65;;;;;;;;;;6182060;23;20021;-89
2021/01/05 07:09:19;;;;;;;10.15;7.65;;;;;;;;;;6184653;23;20501;-76
2021/01/05 07:11:45;;;;;;;11.38;6.80;;;;;;;;;;6182430;23;20461;-74
2021/01/05 07:14:12;;;;;;;10.13;6.97;;;;;;;;;;6157216;23;20021;-71
2021/01/05 07:16:38;;;;;;;17.17;7.20;;;;;;;;;;6183026;23;20055;-73
2021/01/05 07:19:04;;;;;;;11.15;7.70;;;;;;;;;;6182239;23;20025;-72
2021/01/05 07:21:33;;;;;;;10.35;7.53;;;;;;;;;;6182182;23;20104;-72
2021/01/05 07:23:59;;;;;;;9.98;7.00;;;;;;;;;;6183779;23;20020;-71
2021/01/05 07:26:25;;;;;;;9.77;7.00;;;;;;;;;;6181389;23;20222;-73
2021/01/05 07:28:51;;;;;;;12.65;6.50;;;;;;;;;;6182381;23;20096;-73
2021/01/05 07:31:18;;;;;;;11.48;6.90;;;;;;;;;;6182395;23;20444;-73
2021/01/05 07:33:44;;;;;;;9.60;7.53;;;;;;;;;;6182434;23;20021;-73
2021/01/05 07:36:19;;;;;;;23.95;7.53;;;;;;;;;;6182366;23;20057;-72
2021/01/05 07:38:46;;;;;;;10.25;6.97;;;;;;;;;;6180879;23;20345;-72
2021/01/05 07:41:12;;;;;;;9.00;6.75;;;;;;;;;;6154280;23;20104;-73
2021/01/05 07:43:38;;;;;;;10.90;6.70;;;;;;;;;;6182142;23;20509;-72
2021/01/05 07:46:04;;;;;;;9.68;6.45;;;;;;;;;;6181526;23;20025;-72
2021/01/05 07:48:30;;;;;;;9.70;6.30;;;;;;;;;;6177978;23;20099;-73
2021/01/05 07:50:56;;;;;;;8.32;6.28;;;;;;;;;;6180435;23;20021;-72
2021/01/05 07:53:22;;;;;;;9.30;6.45;;;;;;;;;;6180756;23;20357;-72
2021/01/05 07:55:48;;;;;;;9.50;6.22;;;;;;;;;;6179958;23;20104;-72
2021/01/05 07:58:15;;;;;;;10.48;6.55;;;;;;;;;;6180391;23;20044;-72
2021/01/05 08:00:41;;;;;;;6.78;4.88;;;;;;;;;;6156052;23;20462;-71
2021/01/05 08:03:10;;;;;;;11.75;5.97;;;;;;;;;;6181354;23;20064;-71
2021/01/05 08:05:36;;;;;;;13.50;6.38;;;;;;;;;;6182556;23;20104;-71
2021/01/05 08:08:03;;;;;;;13.40;7.53;;;;;;;;;;6181776;23;20394;-72
2021/01/05 08:10:30;;;;;;;8.38;5.97;;;;;;;;;;6180122;23;20107;-72
2021/01/05 08:12:56;;;;;;;9.80;6.22;;;;;;;;;;6154192;23;20021;-72
2021/01/05 08:15:23;;;;;;;11.32;6.35;;;;;;;;;;6181606;23;20495;-71
2021/01/05 08:17:51;;;;;;;10.45;6.47;;;;;;;;;;6182141;23;20505;-71
2021/01/05 08:20:18;;;;;;;8.63;6.28;;;;;;;;;;6181988;23;20056;-72
2021/01/05 08:22:44;;;;;;;14.55;7.85;;;;;;;;;;6182888;23;20072;-72
2021/01/05 08:25:11;;;;;;;17.85;9.20;;;;;;;;;;6156982;23;20048;-71
2021/01/05 08:27:37;;;;;;;17.35;8.65;;;;;;;;;;6181923;23;20021;-71
2021/01/05 08:30:05;;;;;;;18.45;9.90;;;;;;;;;;6182763;23;20025;-71
2021/01/05 08:32:34;;;;;;;21.50;10.60;;;;;;;;;;6182859;23;20021;-72
2021/01/05 08:35:00;;;;;;;21.67;10.17;;;;;;;;;;6183639;23;20410;-72
2021/01/05 08:37:26;;;;;;;18.63;9.88;;;;;;;;;;6183147;23;20231;-72
2021/01/05 08:39:52;;;;;;;17.70;9.77;;;;;;;;;;6182595;23;20063;-72
2021/01/05 08:42:18;;;;;;;19.17;10.45;;;;;;;;;;6183256;23;20113;-71
2021/01/05 08:44:44;;;;;;;16.10;9.50;;;;;;;;;;6183194;23;20021;-71
2021/01/05 08:47:11;;;;;;;18.85;11.13;;;;;;;;;;6182538;23;20017;-71
2021/01/05 08:49:37;;;;;;;17.85;10.13;;;;;;;;;;6182673;23;20025;-72
2021/01/05 08:52:03;;;;;;;20.92;10.32;;;;;;;;;;6183170;23;20135;-71
2021/01/05 08:54:29;;;;;;;19.02;9.55;;;;;;;;;;6156881;23;20103;-71
2021/01/05 08:56:56;;;;;;;20.15;10.55;;;;;;;;;;6182595;23;20056;-70
2021/01/05 08:59:23;;;;;;;19.77;10.10;;;;;;;;;;6182813;23;20021;-72
2021/01/05 09:01:49;;;;;;;19.00;9.18;;;;;;;;;;6183084;23;20100;-72
2021/01/05 09:04:15;;;;;;;19.17;10.00;;;;;;;;;;6182495;23;20503;-71
2021/01/05 09:06:45;;;;;;;18.02;9.73;;;;;;;;;;6183033;23;20401;-71
2021/01/05 09:09:12;;;;;;;14.48;8.80;;;;;;;;;;6182712;23;20021;-72
2021/01/05 09:11:38;;;;;;;19.02;9.50;;;;;;;;;;6183351;23;20108;-71
2021/01/05 09:14:04;;;;;;;16.13;9.65;;;;;;;;;;6156140;23;20060;-71
2021/01/05 09:16:33;;;;;;;17.13;8.98;;;;;;;;;;6156860;23;20021;-71
2021/01/05 09:18:59;;;;;;;18.95;8.98;;;;;;;;;;6180031;23;20024;-70
2021/01/05 09:21:27;;;;;;;18.80;9.55;;;;;;;;;;6182282;23;20028;-71
2021/01/05 09:23:55;;;;;;;15.95;9.07;;;;;;;;;;6184932;23;20744;-71
2021/01/05 09:26:23;;;;;;;14.27;7.90;;;;;;;;;;6184881;23;20035;-70
2021/01/05 09:28:49;;;;;;;13.65;8.50;;;;;;;;;;6184744;23;20021;-70
2021/01/05 09:31:16;;;;;;;17.52;8.07;;;;;;;;;;6184695;23;20027;-71
2021/01/05 09:33:42;;;;;;;14.98;8.90;;;;;;;;;;6185042;23;20024;-71
2021/01/05 09:36:09;;;;;;;13.07;8.10;;;;;;;;;;6184812;23;20059;-71
2021/01/05 09:38:35;;;;;;;16.73;7.38;;;;;;;;;;6157940;23;20048;-72
2021/01/05 09:41:01;;;;;;;15.85;7.13;;;;;;;;;;6184669;23;20107;-71
2021/01/05 09:43:29;;;;;;;14.15;8.65;;;;;;;;;;6184552;23;20104;-71
2021/01/05 09:45:56;;;;;;;13.80;6.82;;;;;;;;;;6184362;23;20021;-71
2021/01/05 09:48:22;;;;;;;10.40;7.05;;;;;;;;;;6158736;23;20025;-71
2021/01/05 09:50:48;;;;;;;9.85;6.43;;;;;;;;;;6184923;23;20025;-71
2021/01/05 09:53:14;;;;;;;11.25;7.53;;;;;;;;;;6157914;23;20487;-71
2021/01/05 09:55:44;;;;;;;11.20;7.05;;;;;;;;;;6158395;23;20052;-71
2021/01/05 09:58:10;;;;;;;11.73;7.20;;;;;;;;;;6156803;23;20044;-71
2021/01/05 10:00:36;;;;;;;10.50;6.22;;;;;;;;;;6184206;23;20453;-71
2021/01/05 10:03:04;;;;;;;9.05;5.97;;;;;;;;;;6184989;23;20026;-71
2021/01/05 10:05:30;;;;;;;8.20;5.93;;;;;;;;;;6184547;23;20025;-71
2021/01/05 10:07:57;;;;;;;11.30;6.18;;;;;;;;;;6184216;23;20096;-71
2021/01/05 10:10:25;;;;;;;10.15;5.95;;;;;;;;;;6184493;23;20436;-71
2021/01/05 10:12:52;;;;;;;9.65;5.65;;;;;;;;;;6184238;23;20100;-72
2021/01/05 10:15:20;;;;;;;12.32;5.50;;;;;;;;;;6183760;23;20021;-72
2021/01/05 10:17:46;;;;;;;8.57;5.88;;;;;;;;;;6184331;23;20390;-71
2021/01/05 10:20:14;;;;;;;10.45;6.50;;;;;;;;;;6157191;23;20100;-72
2021/01/05 10:22:40;;;;;;;6.70;4.95;;;;;;;;;;6184417;23;20021;-71
2021/01/05 10:25:08;;;;;;;8.70;5.82;;;;;;;;;;6184303;23;20120;-71
2021/01/05 10:27:34;;;;;;;11.18;5.88;;;;;;;;;;6184004;23;20061;-72
2021/01/05 10:30:00;;;;;;;12.40;5.82;;;;;;;;;;6184194;23;20067;-72
2021/01/05 10:32:26;;;;;;;11.30;5.93;;;;;;;;;;6184555;23;20095;-71
2021/01/05 10:34:53;;;;;;;10.90;6.30;;;;;;;;;;6183754;23;20382;-72
2021/01/05 10:37:19;;;;;;;8.60;4.68;;;;;;;;;;6183861;23;20101;-71
2021/01/05 10:40:02;;;;;;;8.23;5.28;;;;;;;;;;6184160;23;20072;-71
2021/01/05 10:42:28;;;;;;;7.47;5.28;;;;;;;;;;6184596;23;20027;-72
2021/01/05 10:44:54;;;;;;;7.60;4.82;;;;;;;;;;6183747;23;20028;-72
2021/01/05 10:47:21;;;;;;;10.65;5.22;;;;;;;;;;6184052;23;20028;-72
2021/01/05 10:49:47;;;;;;;8.45;4.95;;;;;;;;;;6183693;23;20104;-71
2021/01/05 10:52:15;;;;;;;8.85;5.40;;;;;;;;;;6184243;23;20027;-73
2021/01/05 10:54:43;;;;;;;8.23;4.78;;;;;;;;;;6183974;23;20037;-71
2021/01/05 10:57:11;;;;;;;7.47;4.70;;;;;;;;;;6184170;23;20025;-71
2021/01/05 10:59:40;;;;;;;7.10;4.78;;;;;;;;;;6184456;23;20017;-72
2021/01/05 11:02:08;;;;;;;7.75;4.60;;;;;;;;;;6184396;23;20386;-71
2021/01/05 11:04:36;;;;;;;8.05;4.90;;;;;;;;;;6183501;23;20107;-72
2021/01/05 11:07:04;;;;;;;7.63;4.85;;;;;;;;;;6183546;23;20043;-71
2021/01/05 11:09:30;;;;;;;7.53;5.30;;;;;;;;;;6183981;23;20100;-71
2021/01/05 11:12:05;;;;;;;7.45;4.68;;;;;;;;;;6158826;23;20025;-71
2021/01/05 11:14:31;;;;;;;8.40;4.68;;;;;;;;;;6184032;23;20063;-72
2021/01/05 11:16:58;;;;;;;6.63;4.53;;;;;;;;;;6184177;23;20020;-71
2021/01/05 11:19:25;;;;;;;6.57;4.82;;;;;;;;;;6183073;23;20021;-71
2021/01/05 11:21:51;;;;;;;5.22;3.97;;;;;;;;;;6183885;23;20100;-71
2021/01/05 11:24:18;;;;;;;7.03;4.70;;;;;;;;;;6183926;23;20028;-72
2021/01/05 11:26:44;;;;;;;5.53;4.43;;;;;;;;;;6184071;23;20021;-71
2021/01/05 11:29:11;;;;;;;6.30;4.28;;;;;;;;;;6184236;23;20017;-70
2021/01/05 11:31:37;;;;;;;6.80;4.70;;;;;;;;;;6183215;23;20052;-70
2021/01/05 11:34:03;;;;;;;9.30;5.35;;;;;;;;;;6183497;23;20056;-71
2021/01/05 11:36:34;;;;;;;8.00;4.45;;;;;;;;;;6183122;23;20025;-72
2021/01/05 11:39:01;;;;;;;8.68;4.63;;;;;;;;;;6184253;23;20043;-71
2021/01/05 11:41:34;;;;;;;7.20;4.13;;;;;;;;;;6183357;23;20052;-71
2021/01/05 11:44:01;;;;;;;6.38;4.93;;;;;;;;;;6174654;23;20056;-71
2021/01/05 11:46:27;;;;;;;7.72;4.15;;;;;;;;;;6183862;23;20052;-71
2021/01/05 11:48:54;;;;;;;6.95;4.68;;;;;;;;;;6156965;23;20412;-73
2021/01/05 11:51:27;;;;;;;6.78;4.28;;;;;;;;;;6183737;23;20029;-71
2021/01/05 11:53:55;;;;;;;5.85;4.57;;;;;;;;;;6182838;23;20104;-71
2021/01/05 11:56:23;;;;;;;8.35;4.60;;;;;;;;;;6182780;23;20031;-71
2021/01/05 11:58:53;;;;;;;6.70;4.70;;;;;;;;;;6182805;23;20033;-72
2021/01/05 12:01:20;;;;;;;8.15;5.00;;;;;;;;;;6156596;23;20377;-71
2021/01/05 12:03:46;;;;;;;6.65;5.00;;;;;;;;;;6182937;23;20024;-71
2021/01/05 12:06:16;;;;;;;6.85;5.00;;;;;;;;;;6157123;23;20052;-71
2021/01/05 12:08:43;;;;;;;7.18;5.20;;;;;;;;;;6182565;23;20025;-72
2021/01/05 12:11:15;;;;;;;7.28;5.22;;;;;;;;;;6183439;23;20473;-71
2021/01/05 12:13:41;;;;;;;8.52;6.38;;;;;;;;;;6182196;23;20378;-71
2021/01/05 12:16:07;;;;;;;9.15;6.07;;;;;;;;;;6182313;23;20412;-70
2021/01/05 12:18:33;;;;;;;9.75;7.13;;;;;;;;;;6181920;23;20033;-71
2021/01/05 12:21:02;;;;;;;10.57;9.07;;;;;;;;;;6156966;23;20029;-71
2021/01/05 12:23:28;;;;;;;12.65;10.60;;;;;;;;;;6182793;23;20052;-71
2021/01/05 12:25:55;;;;;;;13.40;10.57;;;;;;;;;;6183148;23;20079;-71
2021/01/05 12:28:21;;;;;;;13.13;10.60;;;;;;;;;;6183189;23;20508;-72
2021/01/05 12:30:47;;;;;;;13.73;10.20;;;;;;;;;;6183048;23;20460;-71
2021/01/05 12:33:13;;;;;;;15.23;11.77;;;;;;;;;;6182804;23;20539;-72
2021/01/05 12:35:41;;;;;;;15.02;11.52;;;;;;;;;;6182355;23;20108;-72
2021/01/05 12:38:07;;;;;;;12.48;10.85;;;;;;;;;;6180572;23;20017;-72
2021/01/05 12:40:33;;;;;;;16.05;11.95;;;;;;;;;;6182194;23;20021;-71
2021/01/05 12:42:59;;;;;;;15.73;11.32;;;;;;;;;;6181250;23;20076;-72
2021/01/05 12:45:25;;;;;;;17.00;12.40;;;;;;;;;;6180208;23;20523;-72
2021/01/05 12:47:51;;;;;;;16.85;13.02;;;;;;;;;;6179863;23;20092;-72
2021/01/05 12:50:22;;;;;;;17.10;12.40;;;;;;;;;;6155640;23;20445;-71
2021/01/05 12:52:50;;;;;;;16.10;12.70;;;;;;;;;;6180676;23;20096;-73
2021/01/05 12:55:16;;;;;;;15.18;12.70;;;;;;;;;;6178413;23;20108;-73
2021/01/05 12:57:42;;;;;;;15.60;12.45;;;;;;;;;;6180972;23;20017;-74
2021/01/05 13:00:09;;;;;;;18.08;13.02;;;;;;;;;;6180761;23;20025;-73
2021/01/05 13:02:35;;;;;;;15.63;12.38;;;;;;;;;;6179770;23;20469;-74
2021/01/05 13:05:02;;;;;;;16.25;12.23;;;;;;;;;;6181164;23;20522;-73
2021/01/05 13:07:28;;;;;;;16.48;12.43;;;;;;;;;;6182202;23;20017;-76
2021/01/05 13:09:56;;;;;;;18.40;12.10;;;;;;;;;;6180966;23;20095;-74
2021/01/05 13:12:22;;;;;;;12.95;10.90;;;;;;;;;;6181251;23;20353;-73
2021/01/05 13:14:54;;;;;;;11.57;10.10;;;;;;;;;;6180170;23;20055;-75
2021/01/05 13:17:20;;;;;;;16.30;11.18;;;;;;;;;;6180749;23;20101;-77
2021/01/05 13:19:46;;;;;;;13.45;9.93;;;;;;;;;;6179838;23;20108;-79
2021/01/05 13:22:13;;;;;;;16.67;9.02;;;;;;;;;;6180149;23;20378;-78
2021/01/05 13:24:39;;;;;;;14.65;9.13;;;;;;;;;;6156761;23;20043;-77
2021/01/05 13:27:05;;;;;;;13.63;8.85;;;;;;;;;;6181528;23;20140;-75
2021/01/05 13:29:34;;;;;;;13.48;9.38;;;;;;;;;;6181709;23;20099;-74
2021/01/05 13:32:02;;;;;;;11.43;8.90;;;;;;;;;;6181904;23;20021;-72
2021/01/05 13:34:34;;;;;;;13.80;8.40;;;;;;;;;;6180587;23;20021;-76
2021/01/05 13:37:01;;;;;;;13.60;9.38;;;;;;;;;;6182336;23;20103;-75
2021/01/05 13:39:28;;;;;;;10.85;8.07;;;;;;;;;;6181668;23;20104;-73
2021/01/05 13:41:58;;;;;;;12.07;8.23;;;;;;;;;;6182224;23;20033;-71
2021/01/05 13:44:24;;;;;;;10.23;7.60;;;;;;;;;;6180919;23;20104;-72
2021/01/05 13:46:57;;;;;;;11.27;7.68;;;;;;;;;;6156465;23;20318;-71
2021/01/05 13:49:24;;;;;;;10.20;7.47;;;;;;;;;;6182183;23;20460;-72
2021/01/05 13:51:51;;;;;;;9.60;7.28;;;;;;;;;;6182266;23;20473;-71
2021/01/05 13:54:20;;;;;;;10.07;6.55;;;;;;;;;;6181608;23;20025;-73
2021/01/05 13:56:52;;;;;;;10.18;6.75;;;;;;;;;;6182523;23;20408;-72
2021/01/05 13:59:18;;;;;;;9.93;6.68;;;;;;;;;;6182408;23;20028;-72
2021/01/05 14:01:51;;;;;;;8.77;6.15;;;;;;;;;;6182318;23;20104;-72
2021/01/05 14:04:17;;;;;;;7.32;5.88;;;;;;;;;;6182017;23;20446;-72
2021/01/05 14:06:43;;;;;;;10.50;7.10;;;;;;;;;;6182128;23;20027;-72
2021/01/05 14:09:09;;;;;;;9.27;6.57;;;;;;;;;;6183572;23;20047;-73
2021/01/05 14:11:35;;;;;;;9.32;7.10;;;;;;;;;;6184137;23;20499;-71
2021/01/05 14:14:03;;;;;;;8.93;6.22;;;;;;;;;;6183959;23;20027;-72
2021/01/05 14:16:29;;;;;;;9.45;6.82;;;;;;;;;;6184183;23;20103;-73
2021/01/05 14:18:55;;;;;;;10.38;7.22;;;;;;;;;;6183656;23;20025;-73
2021/01/05 14:21:42;;;;;;;11.25;6.55;;;;;;;;;;6158200;23;20056;-72
2021/01/05 14:24:28;;;;;;;7.70;6.22;;;;;;;;;;6183419;23;20021;-72
2021/01/05 14:26:57;;;;;;;9.10;6.18;;;;;;;;;;6183392;23;20028;-72
2021/01/05 14:29:26;;;;;;;8.73;5.82;;;;;;;;;;6183787;23;20076;-72
2021/01/05 14:31:54;;;;;;;9.43;6.32;;;;;;;;;;6184104;23;20097;-73
2021/01/05 14:34:20;;;;;;;9.55;6.28;;;;;;;;;;6184396;23;20028;-72
2021/01/05 14:36:47;;;;;;;7.72;5.65;;;;;;;;;;6183326;23;20029;-72
2021/01/05 14:39:16;;;;;;;8.02;5.57;;;;;;;;;;6183568;23;20079;-72
2021/01/05 14:41:45;;;;;;;7.90;5.63;;;;;;;;;;6183584;23;20021;-71